sensor_id;sensor_type;location;lat;lon;timestamp;temperature;humidity
16513;DHT22;8369;48.030;11.598;2023-04-16T00:01:40;5.60;99.90
16513;DHT22;8369;48.030;11.598;2023-04-16T00:04:06;5.50;99.90
16513;DHT22;8369;48.030;11.598;2023-04-16T00:06:31;5.60;99.90
16513;DHT22;8369;48.030;11.598;2023-04-16T00:08:57;5.50;99.90
16513;DHT22;8369;48.030;11.598;2023-04-16T00:11:23;5.50;99.90
16513;DHT22;8369;48.030;11.598;2023-04-16T00:13:49;5.50;99.90
16513;DHT22;8369;48.030;11.598;2023-04-16T00:16:17;5.50;99.90
16513;DHT22;8369;48.030;11.598;2023-04-16T00:18:42;5.50;99.90
16513;DHT22;8369;48.030;11.598;2023-04-16T00:21:08;5.50;99.90
16513;DHT22;8369;48.030;11.598;2023-04-16T00:23:34;5.50;99.90
16513;DHT22;8369;48.030;11.598;2023-04-16T00:26:01;5.50;99.90
16513;DHT22;8369;48.030;11.598;2023-04-16T00:28:27;5.50;99.90
16513;DHT22;8369;48.030;11.598;2023-04-16T00:30:53;5.50;99.90
16513;DHT22;8369;48.030;11.598;2023-04-16T00:33:19;5.50;99.90
16513;DHT22;8369;48.030;11.598;2023-04-16T00:35:46;5.50;99.90
16513;DHT22;8369;48.030;11.598;2023-04-16T00:38:12;5.50;99.90
16513;DHT22;8369;48.030;11.598;2023-04-16T00:40:38;5.50;99.90
16513;DHT22;8369;48.030;11.598;2023-04-16T00:43:04;5.60;99.90
16513;DHT22;8369;48.030;11.598;2023-04-16T00:45:30;5.60;99.90
16513;DHT22;8369;48.030;11.598;2023-04-16T00:47:57;5.60;99.90
16513;DHT22;8369;48.030;11.598;2023-04-16T00:50:23;5.60;99.90
16513;DHT22;8369;48.030;11.598;2023-04-16T00:52:49;5.60;99.90
16513;DHT22;8369;48.030;11.598;2023-04-16T00:55:15;5.60;99.90
16513;DHT22;8369;48.030;11.598;2023-04-16T00:57:44;5.60;99.90
16513;DHT22;8369;48.030;11.598;2023-04-16T01:00:10;5.60;99.90
16513;DHT22;8369;48.030;11.598;2023-04-16T01:02:36;5.60;99.90
16513;DHT22;8369;48.030;11.598;2023-04-16T01:05:04;5.60;99.90
16513;DHT22;8369;48.030;11.598;2023-04-16T01:07:30;5.60;99.90
16513;DHT22;8369;48.030;11.598;2023-04-16T01:09:56;5.60;99.90
16513;DHT22;8369;48.030;11.598;2023-04-16T01:12:22;5.60;99.90
16513;DHT22;8369;48.030;11.598;2023-04-16T01:14:48;5.60;99.90
16513;DHT22;8369;48.030;11.598;2023-04-16T01:17:14;5.60;99.90
16513;DHT22;8369;48.030;11.598;2023-04-16T01:19:40;5.60;99.90
16513;DHT22;8369;48.030;11.598;2023-04-16T01:22:07;5.60;99.90
16513;DHT22;8369;48.030;11.598;2023-04-16T01:24:33;5.60;99.90
16513;DHT22;8369;48.030;11.598;2023-04-16T01:26:59;5.70;99.90
16513;DHT22;8369;48.030;11.598;2023-04-16T01:29:26;5.60;99.90
16513;DHT22;8369;48.030;11.598;2023-04-16T01:31:52;5.60;99.90
16513;DHT22;8369;48.030;11.598;2023-04-16T01:34:18;5.60;99.90
16513;DHT22;8369;48.030;11.598;2023-04-16T01:36:44;5.60;99.90
16513;DHT22;8369;48.030;11.598;2023-04-16T01:39:10;5.60;99.90
16513;DHT22;8369;48.030;11.598;2023-04-16T01:41:40;5.60;99.90
16513;DHT22;8369;48.030;11.598;2023-04-16T01:44:06;5.60;99.90
16513;DHT22;8369;48.030;11.598;2023-04-16T01:46:33;5.60;99.90
16513;DHT22;8369;48.030;11.598;2023-04-16T01:49:04;5.60;99.90
16513;DHT22;8369;48.030;11.598;2023-04-16T01:51:30;5.60;99.90
16513;DHT22;8369;48.030;11.598;2023-04-16T01:53:56;5.60;99.90
16513;DHT22;8369;48.030;11.598;2023-04-16T01:56:23;5.60;99.90
16513;DHT22;8369;48.030;11.598;2023-04-16T01:58:49;5.60;99.90
16513;DHT22;8369;48.030;11.598;2023-04-16T02:01:15;5.60;99.90
16513;DHT22;8369;48.030;11.598;2023-04-16T02:03:41;5.60;99.90
16513;DHT22;8369;48.030;11.598;2023-04-16T02:06:07;5.60;99.90
16513;DHT22;8369;48.030;11.598;2023-04-16T02:08:32;5.60;99.90
16513;DHT22;8369;48.030;11.598;2023-04-16T02:10:59;5.50;99.90
16513;DHT22;8369;48.030;11.598;2023-04-16T02:13:25;5.50;99.90
16513;DHT22;8369;48.030;11.598;2023-04-16T02:15:51;5.60;99.90
16513;DHT22;8369;48.030;11.598;2023-04-16T02:18:17;5.60;99.90
16513;DHT22;8369;48.030;11.598;2023-04-16T02:20:45;5.60;99.90
16513;DHT22;8369;48.030;11.598;2023-04-16T02:23:12;5.60;99.90
16513;DHT22;8369;48.030;11.598;2023-04-16T02:25:44;5.60;99.90
16513;DHT22;8369;48.030;11.598;2023-04-16T02:28:13;5.50;99.90
16513;DHT22;8369;48.030;11.598;2023-04-16T02:30:39;5.60;99.90
16513;DHT22;8369;48.030;11.598;2023-04-16T02:33:07;5.50;99.90
16513;DHT22;8369;48.030;11.598;2023-04-16T02:35:35;5.50;99.90
16513;DHT22;8369;48.030;11.598;2023-04-16T02:38:03;5.50;99.90
16513;DHT22;8369;48.030;11.598;2023-04-16T02:40:31;5.50;99.90
16513;DHT22;8369;48.030;11.598;2023-04-16T02:42:57;5.60;99.90
16513;DHT22;8369;48.030;11.598;2023-04-16T02:45:23;5.60;99.90
16513;DHT22;8369;48.030;11.598;2023-04-16T02:47:50;5.60;99.90
16513;DHT22;8369;48.030;11.598;2023-04-16T02:50:16;5.50;99.90
16513;DHT22;8369;48.030;11.598;2023-04-16T02:52:42;5.50;99.90
16513;DHT22;8369;48.030;11.598;2023-04-16T02:55:09;5.50;99.90
16513;DHT22;8369;48.030;11.598;2023-04-16T02:57:35;5.50;99.90
16513;DHT22;8369;48.030;11.598;2023-04-16T03:00:01;5.50;99.90
16513;DHT22;8369;48.030;11.598;2023-04-16T03:02:29;5.50;99.90
16513;DHT22;8369;48.030;11.598;2023-04-16T03:04:55;5.50;99.90
16513;DHT22;8369;48.030;11.598;2023-04-16T03:07:21;5.50;99.90
16513;DHT22;8369;48.030;11.598;2023-04-16T03:09:47;5.50;99.90
16513;DHT22;8369;48.030;11.598;2023-04-16T03:12:13;5.50;99.90
16513;DHT22;8369;48.030;11.598;2023-04-16T03:14:39;5.50;99.90
16513;DHT22;8369;48.030;11.598;2023-04-16T03:17:05;5.50;99.90
16513;DHT22;8369;48.030;11.598;2023-04-16T03:19:31;5.50;99.90
16513;DHT22;8369;48.030;11.598;2023-04-16T03:21:56;5.40;99.90
16513;DHT22;8369;48.030;11.598;2023-04-16T03:24:22;5.50;99.90
16513;DHT22;8369;48.030;11.598;2023-04-16T03:26:48;5.50;99.90
16513;DHT22;8369;48.030;11.598;2023-04-16T03:29:14;5.50;99.90
16513;DHT22;8369;48.030;11.598;2023-04-16T03:31:40;5.50;99.90
16513;DHT22;8369;48.030;11.598;2023-04-16T03:34:06;5.50;99.90
16513;DHT22;8369;48.030;11.598;2023-04-16T03:36:32;5.50;99.90
16513;DHT22;8369;48.030;11.598;2023-04-16T03:38:57;5.50;99.90
16513;DHT22;8369;48.030;11.598;2023-04-16T03:41:23;5.40;99.90
16513;DHT22;8369;48.030;11.598;2023-04-16T03:43:49;5.50;99.90
16513;DHT22;8369;48.030;11.598;2023-04-16T03:46:15;5.40;99.90
16513;DHT22;8369;48.030;11.598;2023-04-16T03:48:41;5.40;99.90
16513;DHT22;8369;48.030;11.598;2023-04-16T03:51:07;5.40;99.90
16513;DHT22;8369;48.030;11.598;2023-04-16T03:53:32;5.40;99.90
16513;DHT22;8369;48.030;11.598;2023-04-16T03:55:58;5.50;99.90
16513;DHT22;8369;48.030;11.598;2023-04-16T03:58:24;5.40;99.90
16513;DHT22;8369;48.030;11.598;2023-04-16T04:00:52;5.50;99.90
16513;DHT22;8369;48.030;11.598;2023-04-16T04:03:19;5.50;99.90
16513;DHT22;8369;48.030;11.598;2023-04-16T04:05:45;5.50;99.90
16513;DHT22;8369;48.030;11.598;2023-04-16T04:08:11;5.50;99.90
16513;DHT22;8369;48.030;11.598;2023-04-16T04:10:37;5.50;99.90
16513;DHT22;8369;48.030;11.598;2023-04-16T04:13:04;5.50;99.90
16513;DHT22;8369;48.030;11.598;2023-04-16T04:15:31;5.50;99.90
16513;DHT22;8369;48.030;11.598;2023-04-16T04:17:57;5.50;99.90
16513;DHT22;8369;48.030;11.598;2023-04-16T04:20:23;5.50;99.90
16513;DHT22;8369;48.030;11.598;2023-04-16T04:22:49;5.50;99.90
16513;DHT22;8369;48.030;11.598;2023-04-16T04:25:16;5.50;99.90
16513;DHT22;8369;48.030;11.598;2023-04-16T04:27:42;5.50;99.90
16513;DHT22;8369;48.030;11.598;2023-04-16T04:30:08;5.50;99.90
16513;DHT22;8369;48.030;11.598;2023-04-16T04:32:34;5.50;99.90
16513;DHT22;8369;48.030;11.598;2023-04-16T04:35:02;5.40;99.90
16513;DHT22;8369;48.030;11.598;2023-04-16T04:37:28;5.50;99.90
16513;DHT22;8369;48.030;11.598;2023-04-16T04:39:54;5.50;99.90
16513;DHT22;8369;48.030;11.598;2023-04-16T04:42:21;5.50;99.90
16513;DHT22;8369;48.030;11.598;2023-04-16T04:44:47;5.40;99.90
16513;DHT22;8369;48.030;11.598;2023-04-16T04:47:13;5.40;99.90
16513;DHT22;8369;48.030;11.598;2023-04-16T04:49:40;5.40;99.90
16513;DHT22;8369;48.030;11.598;2023-04-16T04:52:06;5.40;99.90
16513;DHT22;8369;48.030;11.598;2023-04-16T04:54:32;5.40;99.90
16513;DHT22;8369;48.030;11.598;2023-04-16T04:56:58;5.40;99.90
16513;DHT22;8369;48.030;11.598;2023-04-16T04:59:24;5.40;99.90
16513;DHT22;8369;48.030;11.598;2023-04-16T05:01:50;5.40;99.90
16513;DHT22;8369;48.030;11.598;2023-04-16T05:04:16;5.40;99.90
16513;DHT22;8369;48.030;11.598;2023-04-16T05:06:43;5.40;99.90
16513;DHT22;8369;48.030;11.598;2023-04-16T05:09:09;5.40;99.90
16513;DHT22;8369;48.030;11.598;2023-04-16T05:11:40;5.40;99.90
16513;DHT22;8369;48.030;11.598;2023-04-16T05:14:06;5.40;99.90
16513;DHT22;8369;48.030;11.598;2023-04-16T05:16:35;5.40;99.90
16513;DHT22;8369;48.030;11.598;2023-04-16T05:19:01;5.50;99.90
16513;DHT22;8369;48.030;11.598;2023-04-16T05:21:27;5.50;99.90
16513;DHT22;8369;48.030;11.598;2023-04-16T05:23:54;5.50;99.90
16513;DHT22;8369;48.030;11.598;2023-04-16T05:26:20;5.50;99.90
16513;DHT22;8369;48.030;11.598;2023-04-16T05:28:47;5.40;99.90
16513;DHT22;8369;48.030;11.598;2023-04-16T05:31:13;5.50;99.90
16513;DHT22;8369;48.030;11.598;2023-04-16T05:33:39;5.50;99.90
16513;DHT22;8369;48.030;11.598;2023-04-16T05:36:05;5.50;99.90
16513;DHT22;8369;48.030;11.598;2023-04-16T05:38:31;5.50;99.90
16513;DHT22;8369;48.030;11.598;2023-04-16T05:40:57;5.50;99.90
16513;DHT22;8369;48.030;11.598;2023-04-16T05:43:23;5.50;99.90
16513;DHT22;8369;48.030;11.598;2023-04-16T05:45:49;5.50;99.90
16513;DHT22;8369;48.030;11.598;2023-04-16T05:48:14;5.50;99.90
16513;DHT22;8369;48.030;11.598;2023-04-16T05:50:40;5.60;99.90
16513;DHT22;8369;48.030;11.598;2023-04-16T05:53:07;5.60;99.90
16513;DHT22;8369;48.030;11.598;2023-04-16T05:55:34;5.60;99.90
16513;DHT22;8369;48.030;11.598;2023-04-16T05:58:03;5.60;99.90
16513;DHT22;8369;48.030;11.598;2023-04-16T06:00:33;5.60;99.90
16513;DHT22;8369;48.030;11.598;2023-04-16T06:02:58;5.60;99.90
16513;DHT22;8369;48.030;11.598;2023-04-16T06:05:25;5.60;99.90
16513;DHT22;8369;48.030;11.598;2023-04-16T06:07:51;5.60;99.90
16513;DHT22;8369;48.030;11.598;2023-04-16T06:10:18;5.60;99.90
16513;DHT22;8369;48.030;11.598;2023-04-16T06:12:43;5.60;99.90
16513;DHT22;8369;48.030;11.598;2023-04-16T06:15:10;5.60;99.90
16513;DHT22;8369;48.030;11.598;2023-04-16T06:17:35;5.60;99.90
16513;DHT22;8369;48.030;11.598;2023-04-16T06:20:01;5.70;99.90
16513;DHT22;8369;48.030;11.598;2023-04-16T06:22:27;5.70;99.90
16513;DHT22;8369;48.030;11.598;2023-04-16T06:24:53;5.70;99.90
16513;DHT22;8369;48.030;11.598;2023-04-16T06:27:19;5.70;99.90
16513;DHT22;8369;48.030;11.598;2023-04-16T06:29:45;5.80;99.90
16513;DHT22;8369;48.030;11.598;2023-04-16T06:32:11;5.80;99.90
16513;DHT22;8369;48.030;11.598;2023-04-16T06:34:37;5.90;99.90
16513;DHT22;8369;48.030;11.598;2023-04-16T06:37:03;5.90;99.90
16513;DHT22;8369;48.030;11.598;2023-04-16T06:39:29;6.00;99.90
16513;DHT22;8369;48.030;11.598;2023-04-16T06:41:55;6.00;99.90
16513;DHT22;8369;48.030;11.598;2023-04-16T06:44:21;6.00;99.90
16513;DHT22;8369;48.030;11.598;2023-04-16T06:46:47;6.10;99.90
16513;DHT22;8369;48.030;11.598;2023-04-16T06:49:13;6.10;99.90
16513;DHT22;8369;48.030;11.598;2023-04-16T06:51:39;6.20;99.90
16513;DHT22;8369;48.030;11.598;2023-04-16T06:54:05;6.20;99.90
16513;DHT22;8369;48.030;11.598;2023-04-16T06:56:31;6.20;99.90
16513;DHT22;8369;48.030;11.598;2023-04-16T06:58:56;6.30;99.90
16513;DHT22;8369;48.030;11.598;2023-04-16T07:01:23;6.30;99.90
16513;DHT22;8369;48.030;11.598;2023-04-16T07:03:49;6.30;99.90
16513;DHT22;8369;48.030;11.598;2023-04-16T07:06:15;6.30;99.90
16513;DHT22;8369;48.030;11.598;2023-04-16T07:08:41;6.40;99.90
16513;DHT22;8369;48.030;11.598;2023-04-16T07:11:07;6.40;99.90
16513;DHT22;8369;48.030;11.598;2023-04-16T07:13:33;6.40;99.90
16513;DHT22;8369;48.030;11.598;2023-04-16T07:15:59;6.40;99.90
16513;DHT22;8369;48.030;11.598;2023-04-16T07:18:25;6.50;99.90
16513;DHT22;8369;48.030;11.598;2023-04-16T07:20:51;6.50;99.90
16513;DHT22;8369;48.030;11.598;2023-04-16T07:23:17;6.50;99.90
16513;DHT22;8369;48.030;11.598;2023-04-16T07:25:43;6.60;99.90
16513;DHT22;8369;48.030;11.598;2023-04-16T07:28:08;6.60;99.90
16513;DHT22;8369;48.030;11.598;2023-04-16T07:30:34;6.60;99.90
16513;DHT22;8369;48.030;11.598;2023-04-16T07:33:03;6.60;99.90
16513;DHT22;8369;48.030;11.598;2023-04-16T07:35:30;6.60;99.90
16513;DHT22;8369;48.030;11.598;2023-04-16T07:37:56;6.70;99.90
16513;DHT22;8369;48.030;11.598;2023-04-16T07:40:23;6.70;99.90
16513;DHT22;8369;48.030;11.598;2023-04-16T07:42:49;6.70;99.90
16513;DHT22;8369;48.030;11.598;2023-04-16T07:45:16;6.70;99.90
16513;DHT22;8369;48.030;11.598;2023-04-16T07:47:42;6.80;99.90
16513;DHT22;8369;48.030;11.598;2023-04-16T07:50:08;6.90;99.90
16513;DHT22;8369;48.030;11.598;2023-04-16T07:52:34;6.80;99.90
16513;DHT22;8369;48.030;11.598;2023-04-16T07:55:00;6.80;99.90
16513;DHT22;8369;48.030;11.598;2023-04-16T07:57:25;6.90;99.90
16513;DHT22;8369;48.030;11.598;2023-04-16T07:59:51;6.80;99.90
16513;DHT22;8369;48.030;11.598;2023-04-16T08:02:17;6.80;99.90
16513;DHT22;8369;48.030;11.598;2023-04-16T08:04:43;6.80;99.90
16513;DHT22;8369;48.030;11.598;2023-04-16T08:07:09;6.80;99.90
16513;DHT22;8369;48.030;11.598;2023-04-16T08:09:34;6.90;99.90
16513;DHT22;8369;48.030;11.598;2023-04-16T08:12:01;6.80;99.90
16513;DHT22;8369;48.030;11.598;2023-04-16T08:14:28;6.80;99.90
16513;DHT22;8369;48.030;11.598;2023-04-16T08:16:54;6.80;99.90
16513;DHT22;8369;48.030;11.598;2023-04-16T08:19:19;6.80;99.90
16513;DHT22;8369;48.030;11.598;2023-04-16T08:21:46;6.80;99.90
16513;DHT22;8369;48.030;11.598;2023-04-16T08:24:11;6.80;99.90
16513;DHT22;8369;48.030;11.598;2023-04-16T08:26:37;6.80;99.90
16513;DHT22;8369;48.030;11.598;2023-04-16T08:29:04;6.80;99.90
16513;DHT22;8369;48.030;11.598;2023-04-16T08:31:30;6.80;99.90
16513;DHT22;8369;48.030;11.598;2023-04-16T08:33:56;6.90;99.90
16513;DHT22;8369;48.030;11.598;2023-04-16T08:36:22;6.90;99.90
16513;DHT22;8369;48.030;11.598;2023-04-16T08:38:47;7.00;99.90
16513;DHT22;8369;48.030;11.598;2023-04-16T08:41:13;7.10;99.90
16513;DHT22;8369;48.030;11.598;2023-04-16T08:43:44;7.10;99.90
16513;DHT22;8369;48.030;11.598;2023-04-16T08:46:14;7.10;99.90
16513;DHT22;8369;48.030;11.598;2023-04-16T08:48:41;7.20;99.90
16513;DHT22;8369;48.030;11.598;2023-04-16T08:51:09;7.30;99.90
16513;DHT22;8369;48.030;11.598;2023-04-16T08:56:13;7.40;99.90
16513;DHT22;8369;48.030;11.598;2023-04-16T08:58:40;7.50;99.90
16513;DHT22;8369;48.030;11.598;2023-04-16T09:01:08;7.60;99.90
16513;DHT22;8369;48.030;11.598;2023-04-16T09:03:35;7.60;99.90
16513;DHT22;8369;48.030;11.598;2023-04-16T09:06:01;7.60;99.90
16513;DHT22;8369;48.030;11.598;2023-04-16T09:08:29;7.70;99.90
16513;DHT22;8369;48.030;11.598;2023-04-16T09:10:55;7.70;99.90
16513;DHT22;8369;48.030;11.598;2023-04-16T09:13:21;7.80;99.90
16513;DHT22;8369;48.030;11.598;2023-04-16T09:18:56;7.90;99.90
16513;DHT22;8369;48.030;11.598;2023-04-16T09:21:22;8.00;99.90
16513;DHT22;8369;48.030;11.598;2023-04-16T09:23:48;8.10;99.90
16513;DHT22;8369;48.030;11.598;2023-04-16T09:26:15;8.20;99.90
16513;DHT22;8369;48.030;11.598;2023-04-16T09:33:37;8.40;99.90
16513;DHT22;8369;48.030;11.598;2023-04-16T09:36:04;8.40;99.90
16513;DHT22;8369;48.030;11.598;2023-04-16T09:38:50;8.50;99.90
16513;DHT22;8369;48.030;11.598;2023-04-16T09:41:16;8.60;99.90
16513;DHT22;8369;48.030;11.598;2023-04-16T09:43:59;8.60;99.90
16513;DHT22;8369;48.030;11.598;2023-04-16T09:46:31;8.80;99.90
16513;DHT22;8369;48.030;11.598;2023-04-16T09:49:12;8.80;99.90
16513;DHT22;8369;48.030;11.598;2023-04-16T09:51:43;8.90;99.90
16513;DHT22;8369;48.030;11.598;2023-04-16T09:54:09;9.00;99.90
16513;DHT22;8369;48.030;11.598;2023-04-16T09:56:43;9.00;99.90
16513;DHT22;8369;48.030;11.598;2023-04-16T09:59:19;9.10;99.90
16513;DHT22;8369;48.030;11.598;2023-04-16T10:01:45;9.10;99.90
16513;DHT22;8369;48.030;11.598;2023-04-16T10:04:11;9.10;99.90
16513;DHT22;8369;48.030;11.598;2023-04-16T10:06:37;9.20;99.90
16513;DHT22;8369;48.030;11.598;2023-04-16T10:09:07;9.20;99.90
16513;DHT22;8369;48.030;11.598;2023-04-16T10:11:33;9.20;99.90
16513;DHT22;8369;48.030;11.598;2023-04-16T10:13:59;9.20;99.90
16513;DHT22;8369;48.030;11.598;2023-04-16T10:16:26;9.20;99.90
16513;DHT22;8369;48.030;11.598;2023-04-16T10:18:52;9.10;99.90
16513;DHT22;8369;48.030;11.598;2023-04-16T10:21:19;9.00;99.90
16513;DHT22;8369;48.030;11.598;2023-04-16T10:23:45;9.00;99.90
16513;DHT22;8369;48.030;11.598;2023-04-16T10:26:14;9.00;99.90
16513;DHT22;8369;48.030;11.598;2023-04-16T10:28:44;9.00;99.90
16513;DHT22;8369;48.030;11.598;2023-04-16T10:31:10;9.00;99.90
16513;DHT22;8369;48.030;11.598;2023-04-16T10:33:40;9.10;99.90
16513;DHT22;8369;48.030;11.598;2023-04-16T10:36:24;9.10;99.90
16513;DHT22;8369;48.030;11.598;2023-04-16T10:38:57;9.10;99.90
16513;DHT22;8369;48.030;11.598;2023-04-16T10:41:24;9.00;99.90
16513;DHT22;8369;48.030;11.598;2023-04-16T10:43:52;9.00;99.90
16513;DHT22;8369;48.030;11.598;2023-04-16T10:46:33;9.00;99.90
16513;DHT22;8369;48.030;11.598;2023-04-16T10:49:01;9.00;99.90
16513;DHT22;8369;48.030;11.598;2023-04-16T10:51:34;9.00;99.90
16513;DHT22;8369;48.030;11.598;2023-04-16T10:56:37;9.10;99.90
16513;DHT22;8369;48.030;11.598;2023-04-16T10:59:07;9.10;99.90
16513;DHT22;8369;48.030;11.598;2023-04-16T11:01:45;9.10;99.90
16513;DHT22;8369;48.030;11.598;2023-04-16T11:04:26;9.30;99.90
16513;DHT22;8369;48.030;11.598;2023-04-16T11:12:42;9.50;99.90
16513;DHT22;8369;48.030;11.598;2023-04-16T11:15:16;9.40;99.90
16513;DHT22;8369;48.030;11.598;2023-04-16T11:17:48;9.40;99.90
16513;DHT22;8369;48.030;11.598;2023-04-16T11:22:45;9.30;99.90
16513;DHT22;8369;48.030;11.598;2023-04-16T11:25:11;9.30;99.90
16513;DHT22;8369;48.030;11.598;2023-04-16T11:27:37;9.30;99.90
16513;DHT22;8369;48.030;11.598;2023-04-16T11:30:05;9.30;99.90
16513;DHT22;8369;48.030;11.598;2023-04-16T11:32:35;9.30;99.90
16513;DHT22;8369;48.030;11.598;2023-04-16T11:35:03;9.40;99.90
16513;DHT22;8369;48.030;11.598;2023-04-16T11:37:34;9.40;99.90
16513;DHT22;8369;48.030;11.598;2023-04-16T11:40:02;9.40;99.90
16513;DHT22;8369;48.030;11.598;2023-04-16T11:42:32;9.40;99.90
16513;DHT22;8369;48.030;11.598;2023-04-16T11:44:59;9.40;99.90
16513;DHT22;8369;48.030;11.598;2023-04-16T11:47:26;9.40;99.90
16513;DHT22;8369;48.030;11.598;2023-04-16T11:49:52;9.40;99.90
16513;DHT22;8369;48.030;11.598;2023-04-16T11:52:45;9.40;99.90
16513;DHT22;8369;48.030;11.598;2023-04-16T11:55:11;9.30;99.90
16513;DHT22;8369;48.030;11.598;2023-04-16T11:57:37;9.30;99.90
16513;DHT22;8369;48.030;11.598;2023-04-16T12:00:04;9.30;99.90
16513;DHT22;8369;48.030;11.598;2023-04-16T12:02:52;9.30;99.90
16513;DHT22;8369;48.030;11.598;2023-04-16T12:05:32;9.30;99.90
16513;DHT22;8369;48.030;11.598;2023-04-16T12:08:02;9.30;99.90
16513;DHT22;8369;48.030;11.598;2023-04-16T12:10:29;9.30;99.90
16513;DHT22;8369;48.030;11.598;2023-04-16T12:13:15;9.30;99.90
16513;DHT22;8369;48.030;11.598;2023-04-16T12:15:49;9.40;99.90
16513;DHT22;8369;48.030;11.598;2023-04-16T12:18:23;9.30;99.90
16513;DHT22;8369;48.030;11.598;2023-04-16T12:20:51;9.30;99.90
16513;DHT22;8369;48.030;11.598;2023-04-16T12:23:28;9.30;99.90
16513;DHT22;8369;48.030;11.598;2023-04-16T12:25:55;9.20;99.90
16513;DHT22;8369;48.030;11.598;2023-04-16T12:28:32;9.20;99.90
16513;DHT22;8369;48.030;11.598;2023-04-16T12:30:59;9.10;99.90
16513;DHT22;8369;48.030;11.598;2023-04-16T12:33:25;9.00;99.90
16513;DHT22;8369;48.030;11.598;2023-04-16T12:35:51;9.00;99.90
16513;DHT22;8369;48.030;11.598;2023-04-16T12:38:17;8.90;99.90
16513;DHT22;8369;48.030;11.598;2023-04-16T12:40:43;8.90;99.90
16513;DHT22;8369;48.030;11.598;2023-04-16T12:43:09;8.80;99.90
16513;DHT22;8369;48.030;11.598;2023-04-16T12:45:36;8.80;99.90
16513;DHT22;8369;48.030;11.598;2023-04-16T12:48:03;8.80;99.90
16513;DHT22;8369;48.030;11.598;2023-04-16T12:50:29;8.80;99.90
16513;DHT22;8369;48.030;11.598;2023-04-16T12:52:56;8.80;99.90
16513;DHT22;8369;48.030;11.598;2023-04-16T12:55:22;8.80;99.90
16513;DHT22;8369;48.030;11.598;2023-04-16T12:57:48;8.80;99.90
16513;DHT22;8369;48.030;11.598;2023-04-16T13:00:15;8.80;99.90
16513;DHT22;8369;48.030;11.598;2023-04-16T13:02:41;8.80;99.90
16513;DHT22;8369;48.030;11.598;2023-04-16T13:05:08;8.80;99.90
16513;DHT22;8369;48.030;11.598;2023-04-16T13:07:34;8.80;99.90
16513;DHT22;8369;48.030;11.598;2023-04-16T13:10:00;8.80;99.90
16513;DHT22;8369;48.030;11.598;2023-04-16T13:12:26;8.80;99.90
16513;DHT22;8369;48.030;11.598;2023-04-16T13:14:54;8.80;99.90
16513;DHT22;8369;48.030;11.598;2023-04-16T13:17:20;8.80;99.90
16513;DHT22;8369;48.030;11.598;2023-04-16T13:19:46;8.80;99.90
16513;DHT22;8369;48.030;11.598;2023-04-16T13:22:12;8.80;99.90
16513;DHT22;8369;48.030;11.598;2023-04-16T13:24:38;8.80;99.90
16513;DHT22;8369;48.030;11.598;2023-04-16T13:27:04;8.70;99.90
16513;DHT22;8369;48.030;11.598;2023-04-16T13:29:30;8.70;99.90
16513;DHT22;8369;48.030;11.598;2023-04-16T13:31:56;8.80;99.90
16513;DHT22;8369;48.030;11.598;2023-04-16T13:34:22;8.80;99.90
16513;DHT22;8369;48.030;11.598;2023-04-16T13:36:48;8.80;99.90
16513;DHT22;8369;48.030;11.598;2023-04-16T13:39:14;8.80;99.90
16513;DHT22;8369;48.030;11.598;2023-04-16T13:41:41;8.80;99.90
16513;DHT22;8369;48.030;11.598;2023-04-16T13:44:06;8.80;99.90
16513;DHT22;8369;48.030;11.598;2023-04-16T13:46:32;8.90;99.90
16513;DHT22;8369;48.030;11.598;2023-04-16T13:48:58;8.90;99.90
16513;DHT22;8369;48.030;11.598;2023-04-16T13:51:25;8.90;99.90
16513;DHT22;8369;48.030;11.598;2023-04-16T13:53:53;8.90;99.90
16513;DHT22;8369;48.030;11.598;2023-04-16T13:56:20;8.80;99.90
16513;DHT22;8369;48.030;11.598;2023-04-16T13:58:46;8.90;99.90
16513;DHT22;8369;48.030;11.598;2023-04-16T14:01:12;8.90;99.90
16513;DHT22;8369;48.030;11.598;2023-04-16T14:03:38;9.00;99.90
16513;DHT22;8369;48.030;11.598;2023-04-16T14:06:05;9.00;99.90
16513;DHT22;8369;48.030;11.598;2023-04-16T14:08:31;9.00;99.90
16513;DHT22;8369;48.030;11.598;2023-04-16T14:10:57;9.00;99.90
16513;DHT22;8369;48.030;11.598;2023-04-16T14:13:24;9.10;99.90
16513;DHT22;8369;48.030;11.598;2023-04-16T14:15:52;9.10;99.90
16513;DHT22;8369;48.030;11.598;2023-04-16T14:18:18;9.00;99.90
16513;DHT22;8369;48.030;11.598;2023-04-16T14:20:44;9.00;99.90
16513;DHT22;8369;48.030;11.598;2023-04-16T14:23:10;9.10;99.90
16513;DHT22;8369;48.030;11.598;2023-04-16T14:25:37;9.10;99.90
16513;DHT22;8369;48.030;11.598;2023-04-16T14:28:03;9.10;99.90
16513;DHT22;8369;48.030;11.598;2023-04-16T14:30:29;9.10;99.90
16513;DHT22;8369;48.030;11.598;2023-04-16T14:32:55;9.10;99.90
16513;DHT22;8369;48.030;11.598;2023-04-16T14:35:21;9.10;99.90
16513;DHT22;8369;48.030;11.598;2023-04-16T14:37:47;9.10;99.90
16513;DHT22;8369;48.030;11.598;2023-04-16T14:40:13;9.20;99.90
16513;DHT22;8369;48.030;11.598;2023-04-16T14:42:39;9.20;99.90
16513;DHT22;8369;48.030;11.598;2023-04-16T14:45:06;9.20;99.90
16513;DHT22;8369;48.030;11.598;2023-04-16T14:47:34;9.20;99.90
16513;DHT22;8369;48.030;11.598;2023-04-16T14:50:01;9.20;99.90
16513;DHT22;8369;48.030;11.598;2023-04-16T14:52:29;9.10;99.90
16513;DHT22;8369;48.030;11.598;2023-04-16T14:54:55;9.10;99.90
16513;DHT22;8369;48.030;11.598;2023-04-16T14:57:21;9.10;99.90
16513;DHT22;8369;48.030;11.598;2023-04-16T14:59:47;9.10;99.90
16513;DHT22;8369;48.030;11.598;2023-04-16T15:02:14;9.00;99.90
16513;DHT22;8369;48.030;11.598;2023-04-16T15:04:40;9.00;99.90
16513;DHT22;8369;48.030;11.598;2023-04-16T15:07:06;9.00;99.90
16513;DHT22;8369;48.030;11.598;2023-04-16T15:09:33;9.00;99.90
16513;DHT22;8369;48.030;11.598;2023-04-16T15:11:59;9.00;99.90
16513;DHT22;8369;48.030;11.598;2023-04-16T15:14:25;9.00;99.90
16513;DHT22;8369;48.030;11.598;2023-04-16T15:16:52;8.90;99.90
16513;DHT22;8369;48.030;11.598;2023-04-16T15:19:18;8.90;99.90
16513;DHT22;8369;48.030;11.598;2023-04-16T15:21:44;8.90;99.90
16513;DHT22;8369;48.030;11.598;2023-04-16T15:24:10;8.80;99.90
16513;DHT22;8369;48.030;11.598;2023-04-16T15:26:36;8.80;99.90
16513;DHT22;8369;48.030;11.598;2023-04-16T15:29:02;8.80;99.90
16513;DHT22;8369;48.030;11.598;2023-04-16T15:31:29;8.80;99.90
16513;DHT22;8369;48.030;11.598;2023-04-16T15:33:54;8.70;99.90
16513;DHT22;8369;48.030;11.598;2023-04-16T15:36:20;8.80;99.90
16513;DHT22;8369;48.030;11.598;2023-04-16T15:38:46;8.70;99.90
16513;DHT22;8369;48.030;11.598;2023-04-16T15:41:13;8.70;99.90
16513;DHT22;8369;48.030;11.598;2023-04-16T15:43:38;8.70;99.90
16513;DHT22;8369;48.030;11.598;2023-04-16T15:46:04;8.70;99.90
16513;DHT22;8369;48.030;11.598;2023-04-16T15:48:31;8.70;99.90
16513;DHT22;8369;48.030;11.598;2023-04-16T15:50:57;8.70;99.90
16513;DHT22;8369;48.030;11.598;2023-04-16T15:53:23;8.60;99.90
16513;DHT22;8369;48.030;11.598;2023-04-16T15:55:50;8.60;99.90
16513;DHT22;8369;48.030;11.598;2023-04-16T15:58:18;8.60;99.90
16513;DHT22;8369;48.030;11.598;2023-04-16T16:00:45;8.60;99.90
16513;DHT22;8369;48.030;11.598;2023-04-16T16:03:16;8.60;99.90
16513;DHT22;8369;48.030;11.598;2023-04-16T16:05:41;8.60;99.90